createdAt,value
2018-09-09T00:01:57.863Z,62.19
2018-09-09T00:04:26.842Z,61.69
2018-09-09T00:06:55.864Z,62.37
2018-09-09T00:09:29.869Z,62.43
2018-09-09T00:11:58.920Z,62.63
2018-09-09T00:14:27.874Z,62.38
2018-09-09T00:16:56.788Z,61.91
2018-09-09T00:19:25.723Z,61.41
2018-09-09T00:21:54.733Z,61.89
2018-09-09T00:24:23.732Z,62.00
2018-09-09T00:26:52.716Z,61.98
2018-09-09T00:29:21.693Z,61.47
2018-09-09T00:31:50.604Z,61.25
2018-09-09T00:34:19.521Z,62.34
2018-09-09T00:36:48.543Z,63.16
2018-09-09T00:39:17.454Z,61.66
2018-09-09T00:41:46.558Z,62.82
2018-09-09T00:44:15.522Z,64.01
2018-09-09T00:46:44.635Z,62.34
2018-09-09T00:49:18.706Z,62.77
2018-09-09T00:51:52.747Z,62.92
2018-09-09T00:54:21.713Z,63.62
2018-09-09T00:56:50.672Z,64.06
2018-09-09T00:59:19.596Z,62.89
2018-09-09T01:01:48.551Z,65.13
2018-09-09T01:04:17.468Z,65.15
2018-09-09T01:06:46.485Z,63.84
2018-09-09T01:09:16.296Z,64.31
2018-09-09T01:11:45.195Z,64.99
2018-09-09T01:14:14.083Z,64.12
2018-09-09T01:16:43.019Z,63.83
2018-09-09T01:19:11.994Z,63.54
2018-09-09T01:21:40.960Z,63.93
2018-09-09T01:24:09.889Z,63.72
2018-09-09T01:26:38.896Z,64.67
2018-09-09T01:29:07.835Z,62.92
2018-09-09T01:31:36.752Z,62.45
2018-09-09T01:34:05.671Z,62.92
2018-09-09T01:36:34.637Z,63.34
2018-09-09T01:39:03.728Z,62.81
2018-09-09T01:41:32.637Z,62.30
2018-09-09T01:44:01.520Z,63.17
2018-09-09T01:46:30.437Z,62.96
2018-09-09T01:48:59.403Z,62.57
2018-09-09T01:51:28.396Z,61.79
2018-09-09T01:53:57.306Z,61.46
2018-09-09T01:56:26.360Z,61.26
2018-09-09T01:58:55.278Z,61.59
2018-09-09T02:01:24.280Z,62.07
2018-09-09T02:03:53.255Z,63.45
2018-09-09T02:06:22.206Z,61.95
2018-09-09T02:08:51.153Z,61.27
2018-09-09T02:11:20.094Z,62.95
2018-09-09T02:13:49.027Z,61.75
2018-09-09T02:16:17.939Z,61.22
2018-09-09T02:18:46.916Z,62.33
2018-09-09T02:21:15.883Z,62.29
2018-09-09T02:23:44.855Z,61.35
2018-09-09T02:26:13.859Z,61.67
2018-09-09T02:28:42.756Z,61.71
2018-09-09T02:31:11.764Z,62.29
2018-09-09T02:36:08.517Z,64.29
2018-09-09T02:38:37.449Z,64.80
2018-09-09T02:41:06.661Z,63.58
2018-09-09T02:43:35.646Z,64.18
2018-09-09T02:46:04.560Z,63.23
2018-09-09T02:48:33.489Z,63.77
2018-09-09T02:51:02.404Z,63.45
2018-09-09T02:53:31.444Z,65.13
2018-09-09T02:56:00.456Z,63.78
2018-09-09T02:58:29.380Z,64.61
2018-09-09T03:00:58.322Z,65.13
2018-09-09T03:03:27.244Z,65.09
2018-09-09T03:05:56.236Z,64.96
2018-09-09T03:08:25.222Z,64.69
2018-09-09T03:10:59.235Z,66.54
2018-09-09T03:13:28.153Z,67.17
2018-09-09T03:15:57.052Z,66.23
2018-09-09T03:18:26.098Z,68.45
2018-09-09T03:20:55.008Z,70.41
2018-09-09T03:23:23.933Z,70.44
2018-09-09T03:25:52.844Z,70.93
2018-09-09T03:28:21.895Z,70.60
2018-09-09T03:30:50.797Z,68.38
2018-09-09T03:33:19.761Z,66.87
2018-09-09T03:35:48.676Z,66.07
2018-09-09T03:38:17.780Z,65.50
2018-09-09T03:40:46.841Z,65.51
2018-09-09T03:43:15.813Z,65.32
2018-09-09T03:45:44.844Z,65.55
2018-09-09T03:48:13.820Z,65.75
2018-09-09T03:50:42.724Z,65.14
2018-09-09T03:53:11.640Z,65.07
2018-09-09T03:55:40.540Z,65.83
2018-09-09T03:58:09.525Z,65.11
2018-09-09T04:00:38.561Z,65.24
2018-09-09T04:03:07.982Z,65.00
2018-09-09T04:05:36.997Z,65.86
2018-09-09T04:08:06.099Z,65.60
2018-09-09T04:10:35.052Z,65.65
2018-09-09T04:13:03.991Z,65.53
2018-09-09T04:15:32.945Z,66.64
2018-09-09T04:18:01.916Z,65.01
2018-09-09T04:20:30.949Z,65.72
2018-09-09T04:22:59.860Z,66.24
2018-09-09T04:25:28.824Z,64.83
2018-09-09T04:27:57.817Z,64.79
2018-09-09T04:30:26.798Z,64.45
2018-09-09T04:32:55.840Z,64.39
2018-09-09T04:35:24.752Z,64.53
2018-09-09T04:37:53.802Z,64.65
2018-09-09T04:40:22.736Z,63.82
2018-09-09T04:42:51.667Z,63.83
2018-09-09T04:45:20.821Z,64.47
2018-09-09T04:47:49.880Z,63.89
2018-09-09T04:50:18.872Z,66.04
2018-09-09T04:52:47.779Z,66.25
2018-09-09T04:55:16.767Z,68.32
2018-09-09T04:57:45.657Z,67.91
2018-09-09T05:00:14.623Z,68.56
2018-09-09T05:02:43.569Z,68.92
2018-09-09T05:05:12.504Z,67.96
2018-09-09T05:07:41.431Z,68.66
2018-09-09T05:10:10.371Z,68.17
2018-09-09T05:12:39.460Z,69.43
2018-09-09T05:15:08.432Z,70.66
2018-09-09T05:17:37.336Z,70.67
2018-09-09T05:20:06.307Z,71.15
2018-09-09T05:22:35.313Z,70.69
2018-09-09T05:25:04.306Z,69.66
2018-09-09T05:27:33.225Z,69.58
2018-09-09T05:30:02.216Z,68.55
2018-09-09T05:32:31.120Z,68.99
2018-09-09T05:35:00.092Z,69.20
2018-09-09T05:37:29.017Z,68.87
2018-09-09T05:39:57.945Z,67.87
2018-09-09T05:42:26.977Z,67.40
2018-09-09T05:44:56.046Z,67.72
2018-09-09T05:47:25.081Z,67.82
2018-09-09T05:49:54.304Z,67.94
2018-09-09T05:52:23.252Z,65.76
2018-09-09T05:54:52.258Z,67.16
2018-09-09T05:57:21.182Z,65.81
2018-09-09T05:59:50.127Z,65.00
2018-09-09T06:02:19.093Z,65.79
2018-09-09T06:04:48.080Z,64.68
2018-09-09T06:07:17.052Z,63.91
2018-09-09T06:09:45.960Z,63.65
2018-09-09T06:12:14.960Z,65.79
2018-09-09T06:14:43.892Z,65.44
2018-09-09T06:17:12.936Z,65.63
2018-09-09T06:19:41.871Z,65.75
2018-09-09T06:22:10.776Z,64.72
2018-09-09T06:24:39.801Z,63.61
2018-09-09T06:27:08.712Z,63.92
2018-09-09T06:29:37.736Z,63.47
2018-09-09T06:32:06.820Z,63.39
2018-09-09T06:34:36.224Z,61.63
2018-09-09T06:37:05.170Z,62.67
2018-09-09T06:39:34.153Z,63.38
2018-09-09T06:42:03.112Z,65.92
2018-09-09T06:44:32.016Z,65.50
2018-09-09T06:47:01.076Z,66.46
2018-09-09T06:49:30.249Z,67.23
2018-09-09T06:51:59.592Z,65.92
2018-09-09T06:54:28.816Z,66.18
2018-09-09T06:56:57.775Z,65.69
2018-09-09T06:59:27.528Z,65.87
2018-09-09T07:01:56.600Z,66.08
2018-09-09T07:04:25.593Z,64.86
2018-09-09T07:06:54.556Z,64.60
2018-09-09T07:09:23.666Z,65.45
2018-09-09T07:11:52.705Z,65.46
2018-09-09T07:14:21.692Z,63.87
2018-09-09T07:16:50.627Z,64.49
2018-09-09T07:19:19.650Z,63.66
2018-09-09T07:21:48.641Z,63.67
2018-09-09T07:24:17.646Z,64.08
2018-09-09T07:26:46.644Z,63.29
2018-09-09T07:29:16.381Z,61.99
2018-09-09T07:31:45.323Z,61.78
2018-09-09T07:34:14.507Z,63.17
2018-09-09T07:36:43.461Z,63.54
2018-09-09T07:39:12.462Z,63.09
2018-09-09T07:41:41.420Z,62.74
2018-09-09T07:44:10.362Z,61.87
2018-09-09T07:46:39.388Z,61.75
2018-09-09T07:49:08.381Z,62.01
2018-09-09T07:51:37.320Z,61.43
2018-09-09T07:54:06.268Z,61.74
2018-09-09T07:56:35.255Z,62.22
2018-09-09T07:59:04.307Z,63.18
2018-09-09T08:01:33.314Z,63.50
2018-09-09T08:04:02.296Z,60.61
2018-09-09T08:06:31.223Z,61.23
2018-09-09T08:09:00.226Z,60.93
2018-09-09T08:11:34.228Z,61.07
2018-09-09T08:14:03.291Z,59.50
2018-09-09T08:16:32.348Z,59.86
2018-09-09T08:19:01.523Z,60.29
2018-09-09T08:21:30.476Z,59.63
2018-09-09T08:23:59.885Z,57.58
2018-09-09T08:26:28.844Z,58.79
2018-09-09T08:28:57.792Z,58.42
2018-09-09T08:31:26.913Z,58.31
2018-09-09T08:33:55.910Z,57.88
2018-09-09T08:36:24.838Z,56.74
2018-09-09T08:38:53.764Z,57.32
2018-09-09T08:41:22.732Z,58.20
2018-09-09T08:43:51.773Z,56.53
2018-09-09T08:46:20.704Z,56.77
2018-09-09T08:48:49.744Z,54.65
2018-09-09T08:51:18.704Z,54.76
2018-09-09T08:53:47.683Z,53.25
2018-09-09T08:56:16.867Z,54.15
2018-09-09T08:58:45.876Z,53.13
2018-09-09T09:01:14.841Z,51.64
2018-09-09T09:03:43.816Z,52.15
2018-09-09T09:06:12.937Z,54.64
2018-09-09T09:08:41.930Z,52.50
2018-09-09T09:11:10.890Z,50.96
2018-09-09T09:13:39.871Z,51.66
2018-09-09T09:16:08.797Z,51.07
2018-09-09T09:18:37.809Z,50.18
2018-09-09T09:21:06.752Z,52.14
2018-09-09T09:23:35.850Z,52.35
2018-09-09T09:26:04.813Z,53.38
2018-09-09T09:28:34.653Z,53.59
2018-09-09T09:31:03.588Z,52.95
2018-09-09T09:33:32.580Z,54.12
2018-09-09T09:36:01.677Z,52.28
2018-09-09T09:38:30.680Z,51.74
2018-09-09T09:40:59.665Z,52.01
2018-09-09T09:43:28.576Z,50.22
2018-09-09T09:45:57.508Z,50.93
2018-09-09T09:48:26.478Z,50.90
2018-09-09T09:50:55.427Z,50.77
2018-09-09T09:53:24.402Z,50.11
2018-09-09T09:55:53.932Z,50.84
2018-09-09T09:58:22.940Z,49.58
2018-09-09T10:00:56.966Z,49.71
2018-09-09T10:03:26.088Z,51.04
2018-09-09T10:05:55.027Z,50.95
2018-09-09T10:08:24.092Z,51.06
2018-09-09T10:10:53.115Z,48.63
2018-09-09T10:13:22.118Z,49.62
2018-09-09T10:15:51.058Z,48.41
2018-09-09T10:18:19.976Z,48.50
2018-09-09T10:20:48.966Z,49.37
2018-09-09T10:23:18.539Z,49.51
2018-09-09T10:25:47.460Z,50.27
2018-09-09T10:28:16.445Z,49.08
2018-09-09T10:30:45.413Z,48.44
2018-09-09T10:33:14.387Z,47.97
2018-09-09T10:35:43.377Z,48.59
2018-09-09T10:38:12.553Z,52.68
2018-09-09T10:40:41.558Z,58.81
2018-09-09T10:43:10.495Z,56.15
2018-09-09T10:45:39.553Z,54.06
2018-09-09T10:48:08.568Z,52.07
2018-09-09T10:50:37.502Z,50.95
2018-09-09T10:53:06.591Z,52.59
2018-09-09T10:55:35.538Z,50.97
2018-09-09T10:58:04.601Z,52.01
2018-09-09T11:00:34.729Z,48.60
2018-09-09T11:03:03.840Z,49.77
2018-09-09T11:05:32.768Z,50.74
2018-09-09T11:08:01.690Z,49.67
2018-09-09T11:10:30.647Z,48.51
2018-09-09T11:12:59.767Z,48.68
2018-09-09T11:15:28.668Z,51.25
2018-09-09T11:17:57.603Z,51.21
2018-09-09T11:20:26.553Z,52.67
2018-09-09T11:22:55.480Z,54.36
2018-09-09T11:25:24.688Z,56.98
2018-09-09T11:27:53.671Z,61.51
2018-09-09T11:30:22.679Z,60.53
2018-09-09T11:32:51.727Z,59.79
2018-09-09T11:35:20.665Z,60.49
2018-09-09T11:37:49.624Z,60.53
2018-09-09T11:40:18.613Z,62.30
2018-09-09T11:42:47.630Z,62.56
2018-09-09T11:45:16.608Z,61.63
2018-09-09T11:47:45.650Z,62.40
2018-09-09T11:50:15.456Z,61.84
2018-09-09T11:52:44.500Z,60.42
2018-09-09T11:55:13.644Z,58.77
2018-09-09T11:57:42.655Z,59.14
2018-09-09T12:00:11.673Z,60.70
2018-09-09T12:02:40.668Z,60.46
2018-09-09T12:05:09.681Z,60.34
2018-09-09T12:07:38.687Z,61.25
2018-09-09T12:10:07.704Z,61.11
2018-09-09T12:12:36.805Z,60.35
2018-09-09T12:15:05.960Z,60.31
2018-09-09T12:17:34.927Z,60.29
2018-09-09T12:20:03.914Z,63.19
2018-09-09T12:22:32.903Z,62.51
2018-09-09T12:25:01.832Z,63.35
2018-09-09T12:27:30.848Z,63.66
2018-09-09T12:29:59.873Z,63.95
2018-09-09T12:32:28.914Z,62.46
2018-09-09T12:34:57.990Z,64.25
2018-09-09T12:37:26.939Z,64.37
2018-09-09T12:39:55.980Z,66.05
2018-09-09T12:42:24.923Z,61.76
2018-09-09T12:44:58.933Z,60.63
2018-09-09T12:47:33.140Z,60.09
2018-09-09T12:50:02.105Z,58.60
2018-09-09T12:52:31.083Z,58.85
2018-09-09T12:55:00.064Z,59.33
2018-09-09T12:57:29.000Z,59.05
2018-09-09T12:59:57.991Z,60.95
2018-09-09T13:02:26.919Z,59.99
2018-09-09T13:04:55.861Z,58.06
2018-09-09T13:07:24.966Z,58.54
2018-09-09T13:09:53.867Z,58.44
2018-09-09T13:12:22.835Z,59.06
2018-09-09T13:14:51.772Z,57.92
2018-09-09T13:17:20.748Z,57.62
2018-09-09T13:19:49.650Z,56.93
2018-09-09T13:22:18.631Z,56.97
2018-09-09T13:24:47.551Z,56.97
2018-09-09T13:27:16.560Z,54.13
2018-09-09T13:29:45.512Z,54.78
2018-09-09T13:32:14.540Z,53.72
2018-09-09T13:34:43.440Z,54.49
2018-09-09T13:37:12.544Z,54.59
2018-09-09T13:39:41.467Z,54.70
2018-09-09T13:42:10.485Z,55.50
2018-09-09T13:44:39.911Z,56.59
2018-09-09T13:47:09.249Z,54.84
2018-09-09T13:49:38.722Z,56.16
2018-09-09T13:52:07.906Z,55.83
2018-09-09T13:54:36.945Z,55.07
2018-09-09T13:57:05.969Z,55.12
2018-09-09T13:59:34.872Z,54.66
2018-09-09T14:02:03.864Z,54.14
2018-09-09T14:04:32.824Z,54.56
2018-09-09T14:07:01.814Z,54.37
2018-09-09T14:09:31.003Z,51.99
2018-09-09T14:11:59.939Z,52.07
2018-09-09T14:14:28.851Z,50.07
2018-09-09T14:16:57.811Z,49.23
2018-09-09T14:19:26.786Z,49.49
2018-09-09T14:21:55.760Z,48.64
2018-09-09T14:24:24.770Z,49.16
2018-09-09T14:26:53.696Z,49.85
2018-09-09T14:29:22.682Z,47.39
2018-09-09T14:31:51.650Z,45.55
2018-09-09T14:34:20.648Z,46.82
2018-09-09T14:36:49.689Z,45.98
2018-09-09T14:39:18.598Z,44.03
2018-09-09T14:41:47.864Z,44.61
2018-09-09T14:44:17.112Z,43.15
2018-09-09T14:46:46.209Z,43.51
2018-09-09T14:49:15.515Z,44.87
2018-09-09T14:51:44.481Z,43.90
2018-09-09T14:54:14.115Z,43.25
2018-09-09T14:56:43.566Z,43.42
2018-09-09T14:59:13.281Z,43.08
2018-09-09T15:01:44.092Z,42.78
2018-09-09T15:04:13.064Z,41.86
2018-09-09T15:06:42.111Z,42.18
2018-09-09T15:09:12.144Z,41.79
2018-09-09T15:11:41.356Z,42.69
2018-09-09T15:14:10.530Z,41.86
2018-09-09T15:16:39.650Z,41.30
2018-09-09T15:19:08.564Z,42.30
2018-09-09T15:21:37.580Z,41.99
2018-09-09T15:24:06.532Z,42.13
2018-09-09T15:26:35.661Z,43.01
2018-09-09T15:29:04.657Z,42.24
2018-09-09T15:31:33.671Z,42.73
2018-09-09T15:34:02.725Z,42.67
2018-09-09T15:36:31.761Z,42.88
2018-09-09T15:39:00.833Z,43.43
2018-09-09T15:41:29.820Z,41.82
2018-09-09T15:43:58.803Z,43.09
2018-09-09T15:46:27.836Z,42.17
2018-09-09T15:48:56.810Z,43.66
2018-09-09T15:51:25.840Z,43.38
2018-09-09T15:53:54.816Z,43.40
2018-09-09T15:56:23.940Z,45.39
2018-09-09T15:58:53.006Z,44.81
2018-09-09T16:01:22.796Z,43.88
2018-09-09T16:03:52.931Z,44.06
2018-09-09T16:06:22.751Z,44.99
2018-09-09T16:08:51.727Z,44.57
2018-09-09T16:11:20.706Z,45.48
2018-09-09T16:13:49.646Z,44.89
2018-09-09T16:16:18.640Z,45.71
2018-09-09T16:18:47.727Z,46.16
2018-09-09T16:21:16.650Z,45.82
2018-09-09T16:23:45.612Z,45.58
2018-09-09T16:26:14.595Z,45.81
2018-09-09T16:28:43.503Z,46.22
2018-09-09T16:31:12.421Z,45.84
2018-09-09T16:33:41.325Z,45.62
2018-09-09T16:36:10.292Z,46.10
2018-09-09T16:38:39.239Z,45.36
2018-09-09T16:41:08.270Z,45.75
2018-09-09T16:43:37.257Z,46.36
2018-09-09T16:46:06.244Z,45.40
2018-09-09T16:48:35.276Z,45.82
2018-09-09T16:51:04.227Z,46.91
2018-09-09T16:53:33.135Z,46.39
2018-09-09T16:56:02.126Z,48.14
2018-09-09T16:58:31.048Z,46.46
2018-09-09T17:01:00.128Z,46.41
2018-09-09T17:03:29.076Z,45.85
2018-09-09T17:05:57.999Z,47.65
2018-09-09T17:08:26.907Z,46.81
2018-09-09T17:10:55.808Z,47.27
2018-09-09T17:13:24.697Z,48.93
2018-09-09T17:15:53.599Z,47.45
2018-09-09T17:18:22.605Z,49.01
2018-09-09T17:20:51.624Z,46.27
2018-09-09T17:23:20.598Z,47.36
2018-09-09T17:25:49.434Z,47.54
2018-09-09T17:28:18.266Z,46.80
2018-09-09T17:30:47.123Z,47.58
2018-09-09T17:33:15.981Z,46.84
2018-09-09T17:35:44.862Z,48.43
2018-09-09T17:38:13.671Z,45.73
2018-09-09T17:40:42.502Z,46.38
2018-09-09T17:43:11.351Z,46.93
2018-09-09T17:45:40.214Z,48.10
2018-09-09T17:48:09.040Z,48.41
2018-09-09T17:50:37.895Z,48.52
2018-09-09T17:53:06.735Z,47.34
2018-09-09T17:55:35.540Z,47.79
2018-09-09T17:58:04.431Z,47.07
2018-09-09T18:00:33.291Z,46.90
2018-09-09T18:03:02.186Z,48.10
2018-09-09T18:05:31.072Z,52.12
2018-09-09T18:08:00.258Z,49.04
2018-09-09T18:10:29.139Z,47.58
2018-09-09T18:12:58.119Z,47.07
2018-09-09T18:15:27.058Z,47.58
2018-09-09T18:17:55.903Z,47.08
2018-09-09T18:20:24.906Z,47.09
2018-09-09T18:22:53.812Z,46.83
2018-09-09T18:25:22.715Z,47.40
2018-09-09T18:27:51.550Z,46.86
2018-09-09T18:30:20.432Z,47.14
2018-09-09T18:32:49.416Z,47.16
2018-09-09T18:35:18.240Z,46.64
2018-09-09T18:37:47.508Z,46.19
2018-09-09T18:40:16.336Z,45.89
2018-09-09T18:42:45.307Z,46.52
2018-09-09T18:45:14.148Z,47.30
2018-09-09T18:47:42.964Z,48.59
2018-09-09T18:50:11.816Z,47.89
2018-09-09T18:52:47.327Z,48.31
2018-09-09T18:55:19.575Z,47.60
2018-09-09T18:57:48.989Z,48.16
2018-09-09T19:00:18.391Z,48.47
2018-09-09T19:02:47.262Z,48.20
2018-09-09T19:05:17.504Z,48.72
2018-09-09T19:07:46.512Z,48.15
2018-09-09T19:10:15.784Z,48.09
2018-09-09T19:12:44.651Z,48.31
2018-09-09T19:15:13.500Z,49.57
2018-09-09T19:17:43.326Z,49.08
2018-09-09T19:20:12.199Z,51.65
2018-09-09T19:22:41.038Z,51.03
2018-09-09T19:25:09.986Z,51.29
2018-09-09T19:27:38.887Z,50.23
2018-09-09T19:30:07.794Z,50.98
2018-09-09T19:32:36.685Z,50.47
2018-09-09T19:35:05.708Z,56.42
2018-09-09T19:37:34.539Z,53.11
2018-09-09T19:40:03.457Z,53.89
2018-09-09T19:42:35.652Z,52.76
2018-09-09T19:45:05.727Z,49.28
2018-09-09T19:47:35.036Z,50.55
2018-09-09T19:50:05.015Z,50.99
2018-09-09T19:52:34.090Z,51.65
2018-09-09T19:55:02.946Z,48.41
2018-09-09T19:57:31.834Z,49.89
2018-09-09T20:00:00.664Z,47.86
2018-09-09T20:02:29.658Z,51.50
2018-09-09T20:04:58.547Z,52.62
2018-09-09T20:07:27.401Z,49.10
2018-09-09T20:09:56.326Z,49.65
2018-09-09T20:12:25.170Z,48.60
2018-09-09T20:14:54.040Z,47.74
2018-09-09T20:17:22.858Z,47.59
2018-09-09T20:19:51.699Z,47.33
2018-09-09T20:22:20.523Z,48.45
2018-09-09T20:24:49.369Z,48.44
2018-09-09T20:27:18.298Z,49.74
2018-09-09T20:29:47.197Z,51.60
2018-09-09T20:32:16.100Z,52.32
2018-09-09T20:34:44.920Z,51.04
2018-09-09T20:37:13.794Z,51.94
2018-09-09T20:39:42.679Z,51.71
2018-09-09T20:42:11.508Z,49.84
2018-09-09T20:44:40.381Z,49.32
2018-09-09T20:47:09.206Z,49.40
2018-09-09T20:49:38.067Z,48.96
2018-09-09T20:52:07.031Z,50.08
2018-09-09T20:54:35.843Z,51.09
2018-09-09T20:57:04.686Z,50.03
2018-09-09T20:59:33.518Z,49.48
2018-09-09T21:02:02.367Z,49.81
2018-09-09T21:04:31.214Z,51.07
2018-09-09T21:07:00.031Z,50.36
2018-09-09T21:09:28.870Z,52.44
2018-09-09T21:11:57.725Z,53.17
2018-09-09T21:14:26.596Z,50.01
2018-09-09T21:16:55.443Z,50.11
2018-09-09T21:19:24.325Z,54.03
2018-09-09T21:21:53.151Z,52.11
2018-09-09T21:24:21.988Z,51.91
2018-09-09T21:26:50.829Z,49.27
2018-09-09T21:29:19.646Z,50.82
2018-09-09T21:31:48.522Z,51.01
2018-09-09T21:34:17.334Z,53.88
2018-09-09T21:36:46.226Z,51.87
2018-09-09T21:39:15.069Z,51.85
2018-09-09T21:41:43.887Z,53.19
2018-09-09T21:44:12.839Z,53.47
2018-09-09T21:46:41.663Z,54.70
2018-09-09T21:49:10.553Z,54.62
2018-09-09T21:51:39.412Z,53.76
2018-09-09T21:54:08.347Z,52.46
2018-09-09T21:56:37.173Z,51.51
2018-09-09T21:59:06.127Z,50.69
2018-09-09T22:01:40.031Z,52.42
2018-09-09T22:04:08.868Z,52.01
2018-09-09T22:06:37.708Z,52.70
2018-09-09T22:09:08.894Z,51.64
2018-09-09T22:11:38.480Z,51.27
2018-09-09T22:14:07.407Z,54.47
2018-09-09T22:16:36.331Z,52.00
2018-09-09T22:19:05.176Z,52.70
2018-09-09T22:21:34.008Z,54.92
2018-09-09T22:24:03.026Z,53.73
2018-09-09T22:26:31.913Z,51.55
2018-09-09T22:29:00.716Z,52.33
2018-09-09T22:31:29.530Z,51.98
2018-09-09T22:33:58.848Z,51.74
2018-09-09T22:36:27.742Z,52.36
2018-09-09T22:38:56.623Z,51.77
2018-09-09T22:41:25.619Z,50.85
2018-09-09T22:43:54.992Z,51.06
2018-09-09T22:46:23.870Z,52.38
2018-09-09T22:48:52.826Z,51.90
2018-09-09T22:51:21.656Z,52.07
2018-09-09T22:53:50.491Z,52.36
2018-09-09T22:56:19.610Z,52.49
2018-09-09T22:58:48.415Z,52.99
2018-09-09T23:01:17.238Z,55.21
2018-09-09T23:03:46.047Z,54.62
2018-09-09T23:06:14.986Z,55.01
2018-09-09T23:08:44.094Z,54.43
2018-09-09T23:11:13.103Z,55.31
2018-09-09T23:13:42.306Z,55.64
2018-09-09T23:16:11.146Z,55.91
2018-09-09T23:18:40.007Z,55.90
2018-09-09T23:21:08.881Z,59.14
2018-09-09T23:23:37.705Z,57.40
2018-09-09T23:26:06.631Z,56.69
2018-09-09T23:28:35.666Z,57.87
2018-09-09T23:31:04.502Z,59.76
2018-09-09T23:33:33.332Z,56.00
2018-09-09T23:36:02.189Z,60.23
2018-09-09T23:38:31.023Z,55.92
2018-09-09T23:40:59.918Z,55.30
2018-09-09T23:43:28.717Z,55.63
2018-09-09T23:45:57.545Z,56.11
2018-09-09T23:48:26.366Z,58.15
2018-09-09T23:50:55.261Z,57.70
2018-09-09T23:53:24.109Z,56.82
2018-09-09T23:55:52.963Z,54.92
2018-09-09T23:58:21.849Z,56.49
